Time;durP1;ratioP1;P1;durP2;ratioP2;P2;SDS_P1;SDS_P2;PMS_P1;PMS_P2;Temp;Humidity;BMP_temperature;BMP_pressure;BME280_temperature;BME280_humidity;BME280_pressure;Samples;Min_cycle;Max_cycle;Signal;HPM_P1;HPM_P2
2023/08/18 00:00:00;;;;;;;26.50;16.90;;;18.10;99.90;;;;;;5030233;28;20055;-52
2023/08/18 00:02:26;;;;;;;30.27;17.67;;;18.10;99.90;;;;;;5024123;28;20108;-52
2023/08/18 00:04:52;;;;;;;39.05;17.88;;;18.10;99.90;;;;;;5029234;28;20450;-54
2023/08/18 00:07:18;;;;;;;33.90;19.15;;;18.00;99.90;;;;;;5026725;28;20520;-52
2023/08/18 00:09:43;;;;;;;30.23;19.90;;;18.00;99.90;;;;;;5026292;28;20068;-53
2023/08/18 00:12:10;;;;;;;32.50;19.17;;;17.90;99.90;;;;;;5029394;28;20022;-52
2023/08/18 00:14:36;;;;;;;38.70;19.05;;;17.90;99.90;;;;;;5027144;28;20022;-55
2023/08/18 00:17:01;;;;;;;31.25;18.50;;;17.80;99.90;;;;;;5024431;28;20123;-51
2023/08/18 00:19:27;;;;;;;31.60;20.27;;;17.80;99.90;;;;;;5022915;28;20055;-52
2023/08/18 00:21:52;;;;;;;33.92;18.75;;;17.80;99.90;;;;;;5028342;28;20087;-53
2023/08/18 00:24:18;;;;;;;37.03;20.10;;;17.90;99.90;;;;;;5026041;28;20033;-53
2023/08/18 00:26:45;;;;;;;32.63;18.67;;;17.90;99.90;;;;;;5024712;28;20060;-52
2023/08/18 00:29:11;;;;;;;29.80;19.42;;;17.90;99.90;;;;;;5024927;28;20037;-54
2023/08/18 00:31:37;;;;;;;31.05;19.38;;;17.90;99.90;;;;;;5027754;28;20029;-55
2023/08/18 00:34:03;;;;;;;32.03;20.15;;;17.90;99.90;;;;;;5027532;28;20021;-57
2023/08/18 00:36:30;;;;;;;36.25;21.13;;;17.90;99.90;;;;;;5024321;28;20101;-55
2023/08/18 00:38:55;;;;;;;29.70;19.50;;;17.80;99.90;;;;;;5026060;28;20017;-52
2023/08/18 00:41:21;;;;;;;34.78;20.20;;;17.80;99.90;;;;;;5029605;28;20022;-52
2023/08/18 00:43:47;;;;;;;33.33;19.63;;;17.70;99.90;;;;;;5024443;28;20115;-52
2023/08/18 00:46:12;;;;;;;35.65;20.60;;;17.70;99.90;;;;;;5028718;28;20633;-52
2023/08/18 00:48:39;;;;;;;43.05;21.25;;;17.60;99.90;;;;;;5027707;28;20427;-52
2023/08/18 00:51:05;;;;;;;41.70;20.48;;;17.60;99.90;;;;;;5026062;28;20388;-51
2023/08/18 00:53:31;;;;;;;38.35;21.45;;;17.60;99.90;;;;;;5029426;28;20025;-51
2023/08/18 00:55:56;;;;;;;38.90;22.10;;;17.60;99.90;;;;;;5028394;28;20095;-54
2023/08/18 00:58:23;;;;;;;38.33;22.20;;;17.60;99.90;;;;;;5028381;28;20029;-56
2023/08/18 01:00:50;;;;;;;41.45;20.55;;;17.50;99.90;;;;;;5025023;28;20393;-54
2023/08/18 01:03:16;;;;;;;32.83;20.77;;;17.50;99.90;;;;;;5028460;28;20477;-50
2023/08/18 01:05:42;;;;;;;46.50;22.50;;;17.50;99.90;;;;;;5022590;28;20032;-54
2023/08/18 01:08:08;;;;;;;40.22;20.85;;;17.50;99.90;;;;;;5024277;28;20035;-53
2023/08/18 01:11:06;;;;;;;43.22;23.52;;;17.50;99.90;;;;;;5023485;28;20108;-54
2023/08/18 01:13:42;;;;;;;39.75;22.88;;;17.40;99.90;;;;;;5006214;28;20044;-54
2023/08/18 01:16:21;;;;;;;37.58;21.85;;;17.40;99.90;;;;;;5023863;28;20052;-54
2023/08/18 01:18:47;;;;;;;40.75;22.33;;;17.40;99.90;;;;;;5027259;28;20033;-54
2023/08/18 01:21:16;;;;;;;39.58;21.33;;;17.40;99.90;;;;;;5025733;28;20017;-53
2023/08/18 01:23:42;;;;;;;32.40;20.58;;;17.40;99.90;;;;;;5023134;28;20541;-52
2023/08/18 01:26:07;;;;;;;33.90;21.30;;;17.40;99.90;;;;;;5023339;28;20021;-53
2023/08/18 01:28:34;;;;;;;36.50;20.55;;;17.40;99.90;;;;;;5026778;28;20026;-52
2023/08/18 01:31:04;;;;;;;35.58;22.38;;;17.40;99.90;;;;;;5026862;28;20377;-55
2023/08/18 01:33:46;;;;;;;34.00;19.90;;;17.50;99.90;;;;;;5025789;28;20029;-55
2023/08/18 01:36:16;;;;;;;31.88;20.92;;;17.40;99.90;;;;;;5022773;28;20489;-52
2023/08/18 01:38:44;;;;;;;47.58;21.95;;;17.40;99.90;;;;;;5024400;28;20033;-54
2023/08/18 01:41:11;;;;;;;38.63;22.40;;;17.40;99.90;;;;;;5022480;28;20116;-52
2023/08/18 01:43:37;;;;;;;36.58;22.08;;;17.30;99.90;;;;;;5023178;28;20034;-55
2023/08/18 01:46:02;;;;;;;37.30;22.55;;;17.30;99.90;;;;;;5022922;28;20030;-56
2023/08/18 01:48:28;;;;;;;43.47;24.38;;;17.30;99.90;;;;;;5024188;28;20529;-56
2023/08/18 01:50:54;;;;;;;41.17;23.35;;;17.30;99.90;;;;;;5023628;28;20754;-53
2023/08/18 01:53:19;;;;;;;41.05;23.45;;;17.20;99.90;;;;;;5025761;28;20037;-55
2023/08/18 01:55:45;;;;;;;40.00;23.30;;;17.20;99.90;;;;;;5027533;28;20026;-55
2023/08/18 01:58:11;;;;;;;45.40;22.95;;;17.20;99.90;;;;;;5024903;28;20021;-52
2023/08/18 02:00:36;;;;;;;42.28;22.50;;;17.20;99.90;;;;;;5024219;28;20026;-53
2023/08/18 02:03:02;;;;;;;44.25;24.48;;;17.20;99.90;;;;;;5026946;28;20033;-55
2023/08/18 02:05:28;;;;;;;38.20;22.27;;;17.20;99.90;;;;;;5024749;28;20061;-53
2023/08/18 02:07:54;;;;;;;47.97;22.88;;;17.20;99.90;;;;;;5026157;28;20493;-51
2023/08/18 02:10:20;;;;;;;45.17;23.38;;;17.20;99.90;;;;;;5026674;28;20511;-56
2023/08/18 02:12:45;;;;;;;41.20;23.67;;;17.20;99.90;;;;;;5030528;28;20021;-52
2023/08/18 02:15:11;;;;;;;39.97;21.67;;;17.20;99.90;;;;;;5027209;28;20061;-56
2023/08/18 02:17:36;;;;;;;41.97;23.13;;;17.20;99.90;;;;;;5027900;28;20048;-55
2023/08/18 02:20:03;;;;;;;46.53;23.83;;;17.20;99.90;;;;;;5031069;28;20029;-53
2023/08/18 02:22:29;;;;;;;43.80;23.85;;;17.10;99.90;;;;;;5032270;28;20042;-52
2023/08/18 02:24:55;;;;;;;54.95;23.42;;;17.10;99.90;;;;;;5026475;28;20056;-54
2023/08/18 02:27:20;;;;;;;43.63;24.40;;;17.10;99.90;;;;;;5028968;28;20271;-55
2023/08/18 02:29:46;;;;;;;54.08;23.42;;;17.10;99.90;;;;;;5031495;28;20043;-55
2023/08/18 02:32:11;;;;;;;46.67;25.20;;;17.00;99.90;;;;;;5029473;28;20370;-55
2023/08/18 02:34:37;;;;;;;43.95;22.73;;;17.00;99.90;;;;;;5027356;28;20069;-55
2023/08/18 02:37:02;;;;;;;44.25;23.48;;;17.00;99.90;;;;;;5029089;28;20022;-54
2023/08/18 02:39:28;;;;;;;42.35;24.17;;;17.00;99.90;;;;;;5026322;28;20030;-54
2023/08/18 02:41:55;;;;;;;45.47;23.90;;;17.00;99.90;;;;;;5030603;28;20136;-52
2023/08/18 02:44:20;;;;;;;44.15;24.67;;;17.00;99.90;;;;;;5028214;28;20047;-53
2023/08/18 02:46:47;;;;;;;46.58;24.42;;;16.90;99.90;;;;;;5026236;28;20108;-55
2023/08/18 02:49:13;;;;;;;44.75;23.90;;;17.00;99.90;;;;;;5030501;28;20075;-52
2023/08/18 02:51:38;;;;;;;50.78;26.55;;;16.90;99.90;;;;;;5030305;28;20481;-55
2023/08/18 02:54:04;;;;;;;55.22;25.73;;;16.90;99.90;;;;;;5027655;28;20025;-55
2023/08/18 02:56:31;;;;;;;47.90;26.13;;;16.90;99.90;;;;;;5027950;28;20068;-52
2023/08/18 02:58:57;;;;;;;43.47;23.95;;;16.90;99.90;;;;;;5028779;28;20025;-54
2023/08/18 03:01:22;;;;;;;48.72;25.48;;;16.90;99.90;;;;;;5045737;28;20530;-55
2023/08/18 03:03:48;;;;;;;55.58;25.80;;;16.90;99.90;;;;;;5031105;28;20064;-54
2023/08/18 03:06:13;;;;;;;47.92;25.73;;;16.80;99.90;;;;;;5025930;28;20026;-53
2023/08/18 03:08:39;;;;;;;51.50;26.88;;;16.90;99.90;;;;;;5025107;28;20057;-56
2023/08/18 03:11:05;;;;;;;47.38;26.42;;;16.90;99.90;;;;;;5027274;28;20041;-53
2023/08/18 03:13:31;;;;;;;50.88;29.00;;;16.90;99.90;;;;;;5028622;28;20026;-54
2023/08/18 03:15:57;;;;;;;52.28;27.17;;;16.80;99.90;;;;;;5025189;28;20087;-52
2023/08/18 03:18:23;;;;;;;55.28;27.52;;;16.90;99.90;;;;;;5025549;28;20420;-52
2023/08/18 03:20:49;;;;;;;51.80;27.60;;;16.80;99.90;;;;;;5025977;28;20034;-52
2023/08/18 03:23:16;;;;;;;55.42;28.00;;;16.80;99.90;;;;;;5029197;28;20071;-52
2023/08/18 03:25:43;;;;;;;63.60;28.90;;;16.80;99.90;;;;;;5029322;28;20033;-54
2023/08/18 03:28:13;;;;;;;57.60;29.90;;;16.80;99.90;;;;;;5030272;28;20029;-53
2023/08/18 03:30:39;;;;;;;57.00;28.38;;;16.80;99.90;;;;;;5021563;28;20213;-55
2023/08/18 03:33:05;;;;;;;58.70;27.73;;;16.80;99.90;;;;;;5035707;28;20420;-55
2023/08/18 03:35:32;;;;;;;53.10;27.85;;;16.80;99.90;;;;;;5026373;28;20026;-52
2023/08/18 03:37:58;;;;;;;53.55;29.20;;;16.80;99.90;;;;;;5027761;28;20017;-53
2023/08/18 03:40:25;;;;;;;58.50;29.50;;;16.80;99.90;;;;;;5028494;28;20040;-52
2023/08/18 03:42:50;;;;;;;52.63;27.38;;;16.80;99.90;;;;;;5028159;28;20120;-53
2023/08/18 03:45:16;;;;;;;59.58;30.13;;;16.90;99.90;;;;;;5024780;28;20034;-52
2023/08/18 03:47:42;;;;;;;58.25;30.60;;;16.90;99.90;;;;;;5028633;28;20041;-54
2023/08/18 03:50:08;;;;;;;73.28;34.78;;;17.00;99.90;;;;;;5023086;28;20036;-52
2023/08/18 03:52:33;;;;;;;81.88;38.95;;;17.10;99.90;;;;;;5025821;28;20516;-53
2023/08/18 03:54:59;;;;;;;79.05;37.08;;;17.10;99.90;;;;;;5025288;28;20100;-53
2023/08/18 03:57:24;;;;;;;96.03;38.75;;;17.10;99.90;;;;;;5023403;28;20037;-55
2023/08/18 03:59:50;;;;;;;69.65;33.33;;;17.20;99.90;;;;;;5025363;28;20045;-55
2023/08/18 04:02:15;;;;;;;81.93;38.25;;;17.20;99.90;;;;;;5028465;28;20033;-56
2023/08/18 04:04:41;;;;;;;84.03;39.33;;;17.20;99.90;;;;;;5025016;28;20647;-52
2023/08/18 04:07:06;;;;;;;90.38;39.17;;;17.10;99.90;;;;;;5027521;28;20025;-52
2023/08/18 04:09:32;;;;;;;91.35;39.22;;;17.20;99.90;;;;;;5028787;28;20040;-53
2023/08/18 04:11:57;;;;;;;72.20;33.92;;;17.20;99.90;;;;;;5025984;28;20045;-56
2023/08/18 04:14:23;;;;;;;86.85;37.78;;;17.20;99.90;;;;;;5026100;28;20037;-56
2023/08/18 04:16:50;;;;;;;79.97;36.38;;;17.20;99.90;;;;;;5026795;28;20072;-54
2023/08/18 04:19:15;;;;;;;76.82;35.53;;;17.30;99.90;;;;;;5025545;28;20037;-52
2023/08/18 04:21:41;;;;;;;76.95;38.28;;;17.30;99.90;;;;;;5028260;28;20036;-52
2023/08/18 04:24:06;;;;;;;69.30;36.90;;;17.30;99.90;;;;;;5024519;28;20041;-55
2023/08/18 04:26:35;;;;;;;67.53;36.40;;;17.30;99.90;;;;;;5025745;28;20108;-53
2023/08/18 04:29:02;;;;;;;73.40;36.15;;;17.30;99.90;;;;;;5025839;28;20025;-53
2023/08/18 04:31:28;;;;;;;83.93;36.35;;;17.30;99.90;;;;;;5024843;28;20497;-54
2023/08/18 04:33:54;;;;;;;66.10;34.53;;;17.20;99.90;;;;;;5025251;28;20079;-56
2023/08/18 04:36:19;;;;;;;87.88;37.33;;;17.20;99.90;;;;;;5027911;28;20068;-52
2023/08/18 04:38:45;;;;;;;75.57;34.47;;;17.20;99.90;;;;;;5025664;28;20044;-52
2023/08/18 04:41:11;;;;;;;71.78;34.10;;;17.20;99.90;;;;;;5026276;28;20051;-53
2023/08/18 04:43:37;;;;;;;94.25;33.58;;;17.20;99.90;;;;;;5020506;28;20492;-52
2023/08/18 04:46:03;;;;;;;82.45;37.65;;;17.20;99.90;;;;;;5021392;28;20034;-53
2023/08/18 04:48:28;;;;;;;81.28;34.88;;;17.20;99.90;;;;;;5027565;28;20063;-52
2023/08/18 04:50:54;;;;;;;69.60;35.15;;;17.20;99.90;;;;;;5023528;28;20033;-52
2023/08/18 04:53:19;;;;;;;75.25;35.17;;;17.20;99.90;;;;;;5026692;28;20026;-51
2023/08/18 04:55:45;;;;;;;101.63;36.72;;;17.20;99.90;;;;;;5025101;28;20022;-53
2023/08/18 04:58:13;;;;;;;86.28;35.53;;;17.20;99.90;;;;;;5023563;28;20021;-55
2023/08/18 05:00:40;;;;;;;67.25;36.45;;;17.20;99.90;;;;;;5026922;28;20087;-52
2023/08/18 05:03:06;;;;;;;98.05;38.55;;;17.30;99.90;;;;;;5026583;28;20037;-52
2023/08/18 05:05:34;;;;;;;89.55;36.35;;;17.30;99.90;;;;;;5022182;28;20412;-52
2023/08/18 05:08:00;;;;;;;81.72;38.67;;;17.30;99.90;;;;;;5025640;28;20029;-51
2023/08/18 05:10:26;;;;;;;64.65;33.72;;;17.30;99.90;;;;;;5025899;28;20408;-55
2023/08/18 05:12:51;;;;;;;65.05;34.25;;;17.30;99.90;;;;;;5023161;28;20030;-54
2023/08/18 05:15:17;;;;;;;74.40;37.28;;;17.40;99.90;;;;;;5023927;28;20040;-56
2023/08/18 05:17:42;;;;;;;80.45;37.88;;;17.40;99.90;;;;;;5025572;28;20032;-56
2023/08/18 05:20:09;;;;;;;89.38;38.25;;;17.50;99.90;;;;;;5024241;28;20039;-53
2023/08/18 05:22:35;;;;;;;74.25;37.90;;;17.50;99.90;;;;;;5026669;28;20029;-51
2023/08/18 05:25:01;;;;;;;92.72;39.53;;;17.50;99.90;;;;;;5026556;28;20388;-51
2023/08/18 05:27:27;;;;;;;82.30;38.70;;;17.50;99.90;;;;;;5027026;28;20464;-52
2023/08/18 05:29:52;;;;;;;80.53;38.15;;;17.60;99.90;;;;;;5022835;28;20025;-52
2023/08/18 05:32:18;;;;;;;104.07;40.83;;;17.60;99.90;;;;;;5025371;28;20068;-53
2023/08/18 05:34:43;;;;;;;93.60;39.08;;;17.60;99.90;;;;;;5024868;28;20061;-52
2023/08/18 05:37:09;;;;;;;79.07;39.00;;;17.60;99.90;;;;;;5021744;28;20515;-56
2023/08/18 05:39:34;;;;;;;77.85;37.55;;;17.70;99.90;;;;;;5025069;28;20075;-52
2023/08/18 05:42:00;;;;;;;78.07;38.15;;;17.80;99.90;;;;;;5026318;28;20089;-53
2023/08/18 05:44:25;;;;;;;90.13;37.83;;;17.80;99.90;;;;;;5026514;28;20041;-52
2023/08/18 05:46:52;;;;;;;69.20;34.13;;;17.80;99.90;;;;;;5024720;28;20040;-54
2023/08/18 05:49:19;;;;;;;71.70;36.47;;;17.90;99.90;;;;;;5023808;28;20047;-52
2023/08/18 05:51:44;;;;;;;67.55;36.38;;;18.00;99.90;;;;;;5026097;28;20072;-52
2023/08/18 05:54:10;;;;;;;77.57;37.05;;;18.00;99.90;;;;;;5026115;28;20506;-55
2023/08/18 05:56:35;;;;;;;77.50;40.28;;;18.10;99.90;;;;;;5024675;28;20026;-53
2023/08/18 05:59:02;;;;;;;74.32;37.67;;;18.10;99.90;;;;;;5027987;28;20087;-52
2023/08/18 06:01:27;;;;;;;72.00;37.50;;;18.10;99.90;;;;;;5023210;28;20072;-50
2023/08/18 06:03:53;;;;;;;67.45;36.25;;;18.10;99.90;;;;;;5024752;28;20061;-52
2023/08/18 06:06:18;;;;;;;78.15;38.30;;;18.20;99.90;;;;;;5026726;28;20030;-52
2023/08/18 06:08:44;;;;;;;69.65;34.50;;;18.20;99.90;;;;;;5024380;28;20528;-56
2023/08/18 06:11:09;;;;;;;69.93;37.97;;;18.30;99.90;;;;;;5028425;28;20151;-55
2023/08/18 06:13:35;;;;;;;68.68;37.45;;;18.30;99.90;;;;;;5025416;28;20021;-53
2023/08/18 06:16:05;;;;;;;69.60;36.95;;;18.30;99.90;;;;;;5026237;28;20057;-55
2023/08/18 06:18:30;;;;;;;68.78;35.80;;;18.30;99.90;;;;;;5027070;28;20029;-53
2023/08/18 06:20:56;;;;;;;69.28;37.83;;;18.40;99.90;;;;;;5024539;28;20037;-53
2023/08/18 06:23:22;;;;;;;67.07;35.65;;;18.50;99.90;;;;;;5028063;28;20037;-52
2023/08/18 06:25:47;;;;;;;61.58;33.72;;;18.50;99.90;;;;;;5029616;28;20036;-54
2023/08/18 06:28:13;;;;;;;68.85;36.65;;;18.60;99.90;;;;;;5025905;28;20029;-52
2023/08/18 06:30:38;;;;;;;75.53;38.17;;;18.50;99.90;;;;;;5023768;28;20621;-51
2023/08/18 06:33:04;;;;;;;67.53;36.72;;;18.60;99.90;;;;;;5027549;28;20025;-52
2023/08/18 06:35:30;;;;;;;66.20;36.67;;;18.60;99.90;;;;;;5027501;28;20045;-54
2023/08/18 06:37:55;;;;;;;80.13;40.90;;;18.60;99.90;;;;;;5025827;28;20033;-51
2023/08/18 06:40:21;;;;;;;65.00;37.38;;;18.70;99.90;;;;;;5027237;28;20029;-51
2023/08/18 06:42:46;;;;;;;68.57;37.88;;;18.70;99.90;;;;;;5022984;28;20022;-54
2023/08/18 06:45:12;;;;;;;68.32;37.70;;;18.70;99.90;;;;;;5026765;28;20030;-53
2023/08/18 06:47:37;;;;;;;59.88;32.58;;;18.70;99.90;;;;;;5025081;28;20083;-51
2023/08/18 06:50:06;;;;;;;74.63;40.47;;;18.80;99.90;;;;;;5024364;28;20022;-54
2023/08/18 06:52:33;;;;;;;75.80;40.35;;;18.80;99.90;;;;;;5027057;28;20481;-51
2023/08/18 06:54:59;;;;;;;76.65;40.47;;;18.80;99.90;;;;;;5025923;28;20041;-53
2023/08/18 06:57:25;;;;;;;74.30;39.80;;;18.90;99.90;;;;;;5030010;28;20028;-53
2023/08/18 06:59:51;;;;;;;75.18;39.70;;;18.80;99.90;;;;;;5030399;28;20032;-54
2023/08/18 07:02:17;;;;;;;65.28;36.80;;;18.80;99.90;;;;;;5029825;28;20029;-54
2023/08/18 07:04:43;;;;;;;70.00;36.95;;;18.90;99.90;;;;;;5027749;28;20152;-52
2023/08/18 07:07:08;;;;;;;67.63;37.92;;;18.90;99.90;;;;;;5031431;28;20057;-53
2023/08/18 07:09:34;;;;;;;73.80;39.05;;;18.90;99.90;;;;;;5027048;28;20610;-53
2023/08/18 07:11:59;;;;;;;67.80;37.35;;;18.80;99.90;;;;;;5029807;28;20026;-54
2023/08/18 07:14:25;;;;;;;74.03;36.70;;;18.90;99.90;;;;;;5030418;28;20030;-53
2023/08/18 07:16:50;;;;;;;65.45;35.33;;;19.00;99.90;;;;;;5024939;28;20021;-50
2023/08/18 07:19:16;;;;;;;62.30;34.88;;;19.10;99.90;;;;;;5030367;28;20041;-54
2023/08/18 07:21:42;;;;;;;55.47;33.00;;;19.10;99.90;;;;;;5032094;28;20025;-53
2023/08/18 07:24:07;;;;;;;51.20;30.88;;;19.10;99.90;;;;;;5027539;28;20034;-52
2023/08/18 07:26:33;;;;;;;50.08;30.52;;;19.20;99.90;;;;;;5027757;28;20034;-54
2023/08/18 07:28:58;;;;;;;54.90;31.95;;;19.20;99.90;;;;;;5026335;28;20030;-54
2023/08/18 07:31:24;;;;;;;48.70;30.00;;;19.30;99.90;;;;;;5025579;28;20021;-58
2023/08/18 07:33:51;;;;;;;52.05;31.02;;;19.30;99.90;;;;;;5026946;28;20022;-51
2023/08/18 07:36:17;;;;;;;50.22;31.52;;;19.30;99.90;;;;;;5024822;28;20063;-51
2023/08/18 07:38:42;;;;;;;55.70;32.92;;;19.40;99.90;;;;;;5027492;28;20487;-55
2023/08/18 07:41:08;;;;;;;53.30;30.60;;;19.50;99.90;;;;;;5030739;28;20025;-53
2023/08/18 07:43:33;;;;;;;45.95;29.65;;;19.60;99.90;;;;;;5029544;28;20025;-54
2023/08/18 07:45:59;;;;;;;46.97;30.63;;;19.70;99.90;;;;;;5028673;28;20116;-55
2023/08/18 07:48:25;;;;;;;44.25;28.13;;;19.70;99.90;;;;;;5028992;28;20057;-49
2023/08/18 07:50:50;;;;;;;49.45;28.83;;;19.80;99.90;;;;;;5028676;28;20029;-53
2023/08/18 07:53:16;;;;;;;46.60;28.58;;;19.90;99.90;;;;;;5028755;28;20022;-53
2023/08/18 07:55:42;;;;;;;42.85;26.58;;;20.00;99.90;;;;;;5024705;28;20026;-52
2023/08/18 07:58:07;;;;;;;40.35;25.88;;;20.10;99.90;;;;;;5028038;28;20025;-53
2023/08/18 08:00:33;;;;;;;40.75;23.88;;;20.20;99.90;;;;;;5024739;28;20053;-57
2023/08/18 08:02:59;;;;;;;37.55;21.67;;;20.30;99.90;;;;;;5027844;28;20586;-55
2023/08/18 08:05:25;;;;;;;36.97;21.92;;;20.40;99.90;;;;;;5027781;28;20112;-53
2023/08/18 08:07:51;;;;;;;26.80;18.08;;;20.60;99.90;;;;;;5025767;28;20445;-52
2023/08/18 08:10:17;;;;;;;28.50;19.00;;;20.70;99.90;;;;;;5025360;28;20040;-55
2023/08/18 08:12:43;;;;;;;30.38;18.00;;;20.80;99.90;;;;;;5030067;28;20032;-56
2023/08/18 08:15:11;;;;;;;29.23;19.35;;;21.00;99.90;;;;;;5026601;28;20017;-55
2023/08/18 08:17:37;;;;;;;33.17;21.65;;;21.00;99.90;;;;;;5028780;28;20057;-53
2023/08/18 08:20:16;;;;;;;43.15;25.88;;;21.00;99.90;;;;;;5029286;28;20072;-55
2023/08/18 08:22:43;;;;;;;41.17;25.75;;;21.10;99.90;;;;;;5029176;28;20037;-54
2023/08/18 08:25:10;;;;;;;41.10;25.05;;;21.10;99.90;;;;;;5026239;28;21650;-53
2023/08/18 08:27:36;;;;;;;44.05;27.27;;;21.20;99.90;;;;;;5027523;28;20420;-53
2023/08/18 08:30:01;;;;;;;42.50;24.83;;;21.10;99.90;;;;;;5024841;28;20030;-54
2023/08/18 08:32:27;;;;;;;48.03;26.38;;;21.20;99.90;;;;;;5022154;28;20029;-57
2023/08/18 08:34:53;;;;;;;45.25;25.42;;;21.40;99.90;;;;;;5024566;28;20030;-55
2023/08/18 08:37:18;;;;;;;50.38;27.83;;;21.50;99.90;;;;;;5030226;28;20030;-52
2023/08/18 08:39:44;;;;;;;47.13;30.33;;;21.60;99.90;;;;;;5024430;28;20415;-57
2023/08/18 08:42:10;;;;;;;52.75;30.83;;;21.60;99.90;;;;;;5027853;28;20075;-56
2023/08/18 08:44:36;;;;;;;43.40;26.05;;;21.60;99.90;;;;;;5029438;28;20029;-54
2023/08/18 08:47:02;;;;;;;50.83;29.73;;;21.70;99.90;;;;;;5024673;28;20032;-52
2023/08/18 08:49:30;;;;;;;41.10;24.80;;;21.50;99.90;;;;;;5026888;28;20034;-53
2023/08/18 08:52:01;;;;;;;50.20;27.30;;;21.70;99.90;;;;;;5028024;28;20024;-52
2023/08/18 08:54:29;;;;;;;47.22;28.33;;;21.70;99.90;;;;;;5028327;28;20021;-53
2023/08/18 08:56:56;;;;;;;37.90;25.35;;;21.80;99.90;;;;;;5029868;28;20013;-53
2023/08/18 08:59:23;;;;;;;37.22;24.58;;;21.80;99.90;;;;;;5027681;28;20087;-53
2023/08/18 09:01:48;;;;;;;42.95;25.83;;;21.80;99.90;;;;;;5026805;28;20424;-54
2023/08/18 09:04:15;;;;;;;39.85;25.92;;;21.80;99.90;;;;;;5027228;28;20018;-56
2023/08/18 09:06:41;;;;;;;40.00;25.65;;;21.70;99.90;;;;;;5028264;28;20465;-51
2023/08/18 09:09:07;;;;;;;38.03;25.33;;;21.70;99.90;;;;;;5029119;28;20143;-55
2023/08/18 09:11:45;;;;;;;39.80;26.00;;;21.70;99.90;;;;;;5029499;28;20108;-55
2023/08/18 09:14:14;;;;;;;43.83;26.55;;;21.70;99.90;;;;;;5031131;28;20389;-53
2023/08/18 09:16:40;;;;;;;35.10;23.95;;;21.70;99.90;;;;;;5026704;28;20025;-54
2023/08/18 09:19:05;;;;;;;32.03;21.60;;;21.80;99.90;;;;;;5028299;28;20405;-55
2023/08/18 09:21:34;;;;;;;32.35;20.58;;;22.00;99.90;;;;;;5028279;28;20036;-52
2023/08/18 09:24:00;;;;;;;29.58;18.60;;;22.10;99.90;;;;;;5028384;28;20029;-54
2023/08/18 09:26:28;;;;;;;28.67;20.17;;;22.20;99.90;;;;;;5029990;28;20025;-52
2023/08/18 09:28:54;;;;;;;32.80;19.85;;;22.30;99.90;;;;;;5028695;28;20033;-54
2023/08/18 09:31:19;;;;;;;27.77;19.17;;;22.30;99.90;;;;;;5028765;28;20040;-55
2023/08/18 09:33:45;;;;;;;27.00;19.33;;;22.30;99.90;;;;;;5027585;28;20033;-54
2023/08/18 09:36:14;;;;;;;29.58;20.00;;;22.10;99.90;;;;;;5028060;28;20486;-56
2023/08/18 09:38:43;;;;;;;32.55;19.88;;;22.30;99.90;;;;;;5019886;28;20116;-57
2023/08/18 09:41:10;;;;;;;36.08;20.45;;;22.60;99.90;;;;;;5027118;28;20076;-54
2023/08/18 09:43:40;;;;;;;35.20;19.73;;;22.80;99.90;;;;;;5028447;28;20120;-53
2023/08/18 09:46:06;;;;;;;27.23;18.20;;;23.10;99.90;;;;;;5027721;28;20059;-55
2023/08/18 09:48:39;;;;;;;26.40;16.52;;;23.40;99.90;;;;;;5020841;28;20888;-52
2023/08/18 09:51:07;;;;;;;23.88;17.17;;;23.70;99.90;;;;;;5026399;28;20108;-53
2023/08/18 09:53:33;;;;;;;21.00;15.18;;;23.80;99.90;;;;;;5028442;28;20022;-54
2023/08/18 09:56:05;;;;;;;21.33;14.20;;;23.90;99.90;;;;;;5027645;28;20050;-53
2023/08/18 09:58:39;;;;;;;17.60;14.13;;;24.10;99.90;;;;;;5028568;28;20499;-57
2023/08/18 10:01:06;;;;;;;;;;;24.20;99.90;;;;;;5026269;28;20029;-52
2023/08/18 10:03:37;;;;;;;26.20;14.02;;;24.30;99.90;;;;;;5026366;28;19909;-54
2023/08/18 10:06:06;;;;;;;20.65;13.73;;;24.40;99.90;;;;;;5026897;28;20018;-49
2023/08/18 10:08:32;;;;;;;16.90;12.88;;;24.50;99.90;;;;;;5028975;28;20569;-58
2023/08/18 10:10:59;;;;;;;15.15;12.70;;;24.70;99.90;;;;;;5029752;28;20100;-55
2023/08/18 10:13:25;;;;;;;14.77;11.23;;;24.80;99.90;;;;;;5027694;28;20032;-53
2023/08/18 10:15:52;;;;;;;15.85;12.05;;;25.10;99.90;;;;;;5025552;28;20489;-54
2023/08/18 10:18:18;;;;;;;16.15;11.35;;;25.30;99.90;;;;;;5026383;28;20029;-53
2023/08/18 10:20:52;;;;;;;12.05;9.32;;;25.30;99.90;;;;;;5027291;28;20022;-54
2023/08/18 10:23:19;;;;;;;15.13;9.97;;;25.60;99.90;;;;;;5028676;28;20029;-55
2023/08/18 10:25:45;;;;;;;11.65;9.73;;;25.60;99.90;;;;;;5027965;28;20029;-55
2023/08/18 10:28:19;;;;;;;12.57;10.00;;;25.90;99.90;;;;;;5029165;28;20045;-52
2023/08/18 10:30:57;;;;;;;11.73;9.23;;;26.10;99.90;;;;;;5029212;28;20080;-55
2023/08/18 10:33:32;;;;;;;15.68;10.75;;;26.20;99.90;;;;;;5030532;28;20029;-53
2023/08/18 10:36:03;;;;;;;15.07;10.43;;;26.20;99.90;;;;;;5031099;28;20029;-54
2023/08/18 10:38:29;;;;;;;14.45;9.50;;;26.40;99.90;;;;;;5028021;28;20069;-55
2023/08/18 10:40:55;;;;;;;19.00;9.55;;;26.60;99.90;;;;;;5026425;28;20382;-54
2023/08/18 10:43:26;;;;;;;14.65;9.18;;;26.60;99.90;;;;;;5030144;28;20029;-52
2023/08/18 10:45:57;;;;;;;13.75;9.23;;;26.80;99.90;;;;;;5030210;28;20022;-53
2023/08/18 10:48:27;;;;;;;14.40;9.77;;;27.00;99.90;;;;;;5030837;28;20029;-55
2023/08/18 10:50:52;;;;;;;12.23;8.88;;;27.20;99.90;;;;;;5032144;28;20109;-54
2023/08/18 10:53:18;;;;;;;11.57;9.30;;;27.50;99.90;;;;;;5028395;28;20120;-52
2023/08/18 10:55:44;;;;;;;15.88;9.40;;;27.40;99.90;;;;;;5032557;28;20021;-54
2023/08/18 10:58:10;;;;;;;13.25;9.05;;;27.30;99.90;;;;;;5031846;28;20033;-55
2023/08/18 11:00:37;;;;;;;12.30;8.10;;;27.30;99.90;;;;;;5028409;28;20045;-53
2023/08/18 11:03:05;;;;;;;14.98;9.50;;;27.50;99.90;;;;;;5032220;28;20034;-55
2023/08/18 11:05:31;;;;;;;11.25;7.95;;;27.50;99.90;;;;;;5027947;28;20065;-52
2023/08/18 11:07:58;;;;;;;12.02;8.63;;;27.80;99.90;;;;;;5030489;28;20111;-55
2023/08/18 11:10:24;;;;;;;16.85;9.43;;;27.70;99.90;;;;;;5028340;28;20052;-55
2023/08/18 11:12:53;;;;;;;12.02;8.80;;;27.90;99.90;;;;;;5031854;28;20108;-56
2023/08/18 11:15:21;;;;;;;10.48;8.82;;;27.90;99.90;;;;;;5027257;28;20088;-55
2023/08/18 11:17:47;;;;;;;10.82;8.48;;;27.90;99.90;;;;;;5027807;28;20052;-56
2023/08/18 11:20:13;;;;;;;11.65;8.73;;;28.10;99.90;;;;;;5029078;28;20504;-55
2023/08/18 11:22:42;;;;;;;11.23;8.35;;;28.40;99.90;;;;;;5027780;28;20460;-57
2023/08/18 11:25:11;;;;;;;9.88;8.50;;;28.50;99.90;;;;;;5029318;28;20502;-53
2023/08/18 11:27:40;;;;;;;11.43;8.25;;;28.60;99.90;;;;;;5032100;28;20033;-55
2023/08/18 11:30:08;;;;;;;10.27;8.13;;;28.60;99.90;;;;;;5026604;28;20036;-54
2023/08/18 11:32:33;;;;;;;10.07;7.63;;;28.70;99.90;;;;;;5029248;28;20048;-56
2023/08/18 11:35:04;;;;;;;9.70;7.70;;;28.80;99.90;;;;;;5028181;28;20497;-53
2023/08/18 11:37:30;;;;;;;12.40;7.82;;;29.00;99.90;;;;;;5030709;28;20060;-52
2023/08/18 11:39:56;;;;;;;13.93;7.70;;;29.20;99.90;;;;;;5027068;28;20080;-57
2023/08/18 11:42:22;;;;;;;8.60;7.72;;;29.20;99.90;;;;;;5025412;28;20037;-54
2023/08/18 11:44:51;;;;;;;12.60;8.05;;;29.40;99.90;;;;;;5023080;28;20497;-55
2023/08/18 11:47:17;;;;;;;8.05;7.25;;;29.40;99.90;;;;;;5027298;28;20025;-54
2023/08/18 11:49:45;;;;;;;9.43;8.05;;;29.50;99.90;;;;;;5024767;28;20044;-51
2023/08/18 11:52:10;;;;;;;11.20;8.32;;;29.70;99.90;;;;;;5024668;28;20021;-52
2023/08/18 11:54:38;;;;;;;11.13;8.88;;;29.70;99.90;;;;;;5026577;28;20103;-55
2023/08/18 11:57:05;;;;;;;14.13;7.97;;;30.00;99.90;;;;;;5026900;28;20021;-53
2023/08/18 11:59:32;;;;;;;16.52;7.35;;;30.30;99.90;;;;;;5028223;28;20063;-53
2023/08/18 12:02:04;;;;;;;12.65;8.05;;;30.30;99.90;;;;;;5027647;28;20025;-56
2023/08/18 12:04:31;;;;;;;9.13;7.38;;;30.20;99.90;;;;;;5026078;28;20782;-55
2023/08/18 12:06:58;;;;;;;9.63;7.13;;;30.30;99.90;;;;;;5026117;28;20021;-55
2023/08/18 12:09:24;;;;;;;11.27;7.95;;;30.50;99.90;;;;;;5024069;28;20995;-54
2023/08/18 12:11:50;;;;;;;10.95;7.25;;;30.60;99.90;;;;;;5023894;28;20038;-55
2023/08/18 12:14:17;;;;;;;8.45;7.28;;;30.80;99.90;;;;;;5026865;28;20502;-52
2023/08/18 12:16:43;;;;;;;8.95;7.53;;;30.80;99.90;;;;;;5027172;28;20082;-58
2023/08/18 12:19:09;;;;;;;14.32;7.90;;;30.90;99.90;;;;;;5026935;28;20060;-55
2023/08/18 12:21:36;;;;;;;8.98;6.93;;;30.70;99.90;;;;;;5029621;28;20057;-55
2023/08/18 12:24:06;;;;;;;10.52;7.25;;;30.80;99.90;;;;;;5033438;28;20017;-55